sensor_id;sensor_type;location;lat;lon;timestamp;temperature;humidity
1702;DHT22;848;48.354;10.064;2023-11-19T00:01:57;7.90;99.90
1702;DHT22;848;48.354;10.064;2023-11-19T00:04:26;7.80;99.90
1702;DHT22;848;48.354;10.064;2023-11-19T00:06:53;7.90;99.90
1702;DHT22;848;48.354;10.064;2023-11-19T00:09:20;7.90;99.90
1702;DHT22;848;48.354;10.064;2023-11-19T00:11:47;7.80;99.90
1702;DHT22;848;48.354;10.064;2023-11-19T00:14:13;7.80;99.90
1702;DHT22;848;48.354;10.064;2023-11-19T00:16:40;7.80;99.90
1702;DHT22;848;48.354;10.064;2023-11-19T00:19:07;7.80;99.90
1702;DHT22;848;48.354;10.064;2023-11-19T00:21:38;7.90;99.90
1702;DHT22;848;48.354;10.064;2023-11-19T00:24:07;7.90;99.90
1702;DHT22;848;48.354;10.064;2023-11-19T00:26:34;7.90;99.90
1702;DHT22;848;48.354;10.064;2023-11-19T00:29:01;8.00;99.90
1702;DHT22;848;48.354;10.064;2023-11-19T00:31:28;7.90;99.90
1702;DHT22;848;48.354;10.064;2023-11-19T00:33:54;7.90;99.90
1702;DHT22;848;48.354;10.064;2023-11-19T00:36:21;7.90;99.90
1702;DHT22;848;48.354;10.064;2023-11-19T00:38:50;7.90;99.90
1702;DHT22;848;48.354;10.064;2023-11-19T00:41:18;7.90;99.90
1702;DHT22;848;48.354;10.064;2023-11-19T00:43:45;7.90;99.90
1702;DHT22;848;48.354;10.064;2023-11-19T00:46:12;7.90;99.90
1702;DHT22;848;48.354;10.064;2023-11-19T00:48:39;7.80;99.90
1702;DHT22;848;48.354;10.064;2023-11-19T00:51:06;7.80;99.90
1702;DHT22;848;48.354;10.064;2023-11-19T00:53:33;7.90;99.90
1702;DHT22;848;48.354;10.064;2023-11-19T00:56:01;7.90;99.90
1702;DHT22;848;48.354;10.064;2023-11-19T00:58:28;7.90;99.90
1702;DHT22;848;48.354;10.064;2023-11-19T01:00:56;8.00;99.90
1702;DHT22;848;48.354;10.064;2023-11-19T01:03:23;8.00;99.90
1702;DHT22;848;48.354;10.064;2023-11-19T01:05:50;8.00;99.90
1702;DHT22;848;48.354;10.064;2023-11-19T01:08:18;8.00;99.90
1702;DHT22;848;48.354;10.064;2023-11-19T01:10:45;8.00;99.90
1702;DHT22;848;48.354;10.064;2023-11-19T01:13:13;8.00;99.90
1702;DHT22;848;48.354;10.064;2023-11-19T01:15:42;8.20;99.90
1702;DHT22;848;48.354;10.064;2023-11-19T01:18:09;8.00;99.90
1702;DHT22;848;48.354;10.064;2023-11-19T01:20:36;8.10;99.90
1702;DHT22;848;48.354;10.064;2023-11-19T01:23:03;8.10;99.90
1702;DHT22;848;48.354;10.064;2023-11-19T01:25:30;8.10;99.90
1702;DHT22;848;48.354;10.064;2023-11-19T01:27:57;8.10;99.90
1702;DHT22;848;48.354;10.064;2023-11-19T01:30:25;8.10;99.90
1702;DHT22;848;48.354;10.064;2023-11-19T01:32:52;8.10;99.90
1702;DHT22;848;48.354;10.064;2023-11-19T01:35:19;8.10;99.90
1702;DHT22;848;48.354;10.064;2023-11-19T01:37:46;8.20;99.90
1702;DHT22;848;48.354;10.064;2023-11-19T01:40:13;8.20;99.90
1702;DHT22;848;48.354;10.064;2023-11-19T01:42:41;8.20;99.90
1702;DHT22;848;48.354;10.064;2023-11-19T01:45:07;8.20;99.90
1702;DHT22;848;48.354;10.064;2023-11-19T01:47:37;8.10;99.90
1702;DHT22;848;48.354;10.064;2023-11-19T01:50:06;8.20;99.90
1702;DHT22;848;48.354;10.064;2023-11-19T01:52:34;8.20;99.90
1702;DHT22;848;48.354;10.064;2023-11-19T01:55:04;8.20;99.90
1702;DHT22;848;48.354;10.064;2023-11-19T01:57:31;8.20;99.90
1702;DHT22;848;48.354;10.064;2023-11-19T01:59:58;8.20;99.90
1702;DHT22;848;48.354;10.064;2023-11-19T02:02:25;8.20;99.90
1702;DHT22;848;48.354;10.064;2023-11-19T02:04:53;8.30;99.90
1702;DHT22;848;48.354;10.064;2023-11-19T02:07:21;8.40;99.90
1702;DHT22;848;48.354;10.064;2023-11-19T02:09:48;8.30;99.90
1702;DHT22;848;48.354;10.064;2023-11-19T02:12:14;8.30;99.90
1702;DHT22;848;48.354;10.064;2023-11-19T02:14:41;8.40;99.90
1702;DHT22;848;48.354;10.064;2023-11-19T02:17:25;8.40;99.90
1702;DHT22;848;48.354;10.064;2023-11-19T02:19:53;8.40;99.90
1702;DHT22;848;48.354;10.064;2023-11-19T02:22:20;8.40;99.90
1702;DHT22;848;48.354;10.064;2023-11-19T02:24:51;8.40;99.90
1702;DHT22;848;48.354;10.064;2023-11-19T02:27:23;8.40;99.90
1702;DHT22;848;48.354;10.064;2023-11-19T02:29:56;8.40;99.90
1702;DHT22;848;48.354;10.064;2023-11-19T02:32:23;8.40;99.90
1702;DHT22;848;48.354;10.064;2023-11-19T02:34:53;8.40;99.90
1702;DHT22;848;48.354;10.064;2023-11-19T02:37:21;8.50;99.90
1702;DHT22;848;48.354;10.064;2023-11-19T02:39:47;8.40;99.90
1702;DHT22;848;48.354;10.064;2023-11-19T02:42:14;8.40;99.90
1702;DHT22;848;48.354;10.064;2023-11-19T02:44:44;8.40;99.90
1702;DHT22;848;48.354;10.064;2023-11-19T02:47:12;8.40;99.90
1702;DHT22;848;48.354;10.064;2023-11-19T02:49:39;8.40;99.90
1702;DHT22;848;48.354;10.064;2023-11-19T02:52:06;8.40;99.90
1702;DHT22;848;48.354;10.064;2023-11-19T02:54:36;8.40;99.90
1702;DHT22;848;48.354;10.064;2023-11-19T02:57:03;8.40;99.90
1702;DHT22;848;48.354;10.064;2023-11-19T02:59:30;8.30;99.90
1702;DHT22;848;48.354;10.064;2023-11-19T03:02:04;8.30;99.90
1702;DHT22;848;48.354;10.064;2023-11-19T03:04:33;8.40;99.90
1702;DHT22;848;48.354;10.064;2023-11-19T03:07:00;8.40;99.90
1702;DHT22;848;48.354;10.064;2023-11-19T03:09:27;8.50;99.90
1702;DHT22;848;48.354;10.064;2023-11-19T03:11:55;8.50;99.90
1702;DHT22;848;48.354;10.064;2023-11-19T03:14:21;8.50;99.90
1702;DHT22;848;48.354;10.064;2023-11-19T03:16:49;8.50;99.90
1702;DHT22;848;48.354;10.064;2023-11-19T03:19:16;8.50;99.90
1702;DHT22;848;48.354;10.064;2023-11-19T03:21:45;8.50;99.90
1702;DHT22;848;48.354;10.064;2023-11-19T03:24:13;8.50;99.90
1702;DHT22;848;48.354;10.064;2023-11-19T03:26:41;8.60;99.90
1702;DHT22;848;48.354;10.064;2023-11-19T03:29:08;8.60;99.90
1702;DHT22;848;48.354;10.064;2023-11-19T03:31:35;8.80;99.90
1702;DHT22;848;48.354;10.064;2023-11-19T03:34:01;8.70;99.90
1702;DHT22;848;48.354;10.064;2023-11-19T03:36:32;8.70;99.90
1702;DHT22;848;48.354;10.064;2023-11-19T03:39:00;8.70;99.90
1702;DHT22;848;48.354;10.064;2023-11-19T03:41:28;8.90;99.90
1702;DHT22;848;48.354;10.064;2023-11-19T03:43:56;8.80;99.90
1702;DHT22;848;48.354;10.064;2023-11-19T03:46:23;8.80;99.90
1702;DHT22;848;48.354;10.064;2023-11-19T03:48:50;8.80;99.90
1702;DHT22;848;48.354;10.064;2023-11-19T03:51:17;8.90;99.90
1702;DHT22;848;48.354;10.064;2023-11-19T03:53:43;8.90;99.90
1702;DHT22;848;48.354;10.064;2023-11-19T03:56:12;8.90;99.90
1702;DHT22;848;48.354;10.064;2023-11-19T03:58:39;8.80;99.90
1702;DHT22;848;48.354;10.064;2023-11-19T04:01:10;9.00;99.90
1702;DHT22;848;48.354;10.064;2023-11-19T04:03:37;8.80;99.90
1702;DHT22;848;48.354;10.064;2023-11-19T04:06:04;8.80;99.90
1702;DHT22;848;48.354;10.064;2023-11-19T04:08:31;8.90;99.90
1702;DHT22;848;48.354;10.064;2023-11-19T04:10:58;8.80;99.90
1702;DHT22;848;48.354;10.064;2023-11-19T04:13:27;8.80;99.90
1702;DHT22;848;48.354;10.064;2023-11-19T04:15:54;8.90;99.90
1702;DHT22;848;48.354;10.064;2023-11-19T04:18:21;8.90;99.90
1702;DHT22;848;48.354;10.064;2023-11-19T04:20:48;8.90;99.90
1702;DHT22;848;48.354;10.064;2023-11-19T04:23:15;8.90;99.90
1702;DHT22;848;48.354;10.064;2023-11-19T04:25:42;8.90;99.90
1702;DHT22;848;48.354;10.064;2023-11-19T04:28:09;8.90;99.90
1702;DHT22;848;48.354;10.064;2023-11-19T04:30:37;9.00;99.90
1702;DHT22;848;48.354;10.064;2023-11-19T04:33:04;9.00;99.90
1702;DHT22;848;48.354;10.064;2023-11-19T04:35:31;9.00;99.90
1702;DHT22;848;48.354;10.064;2023-11-19T04:37:58;9.00;99.90
1702;DHT22;848;48.354;10.064;2023-11-19T04:40:25;9.00;99.90
1702;DHT22;848;48.354;10.064;2023-11-19T04:42:52;8.90;99.90
1702;DHT22;848;48.354;10.064;2023-11-19T04:45:18;8.90;99.90
1702;DHT22;848;48.354;10.064;2023-11-19T04:47:47;8.90;99.90
1702;DHT22;848;48.354;10.064;2023-11-19T04:50:14;8.90;99.90
1702;DHT22;848;48.354;10.064;2023-11-19T04:52:40;9.00;99.90
1702;DHT22;848;48.354;10.064;2023-11-19T04:55:08;8.90;99.90
1702;DHT22;848;48.354;10.064;2023-11-19T04:57:37;8.90;99.90
1702;DHT22;848;48.354;10.064;2023-11-19T05:00:05;8.90;99.90
1702;DHT22;848;48.354;10.064;2023-11-19T05:02:33;8.90;99.90
1702;DHT22;848;48.354;10.064;2023-11-19T05:05:01;8.80;99.90
1702;DHT22;848;48.354;10.064;2023-11-19T05:07:29;8.90;99.90
1702;DHT22;848;48.354;10.064;2023-11-19T05:09:56;8.90;99.90
1702;DHT22;848;48.354;10.064;2023-11-19T05:12:23;8.90;99.90
1702;DHT22;848;48.354;10.064;2023-11-19T05:14:50;8.90;99.90
1702;DHT22;848;48.354;10.064;2023-11-19T05:17:17;8.90;99.90
1702;DHT22;848;48.354;10.064;2023-11-19T05:19:44;8.90;99.90
1702;DHT22;848;48.354;10.064;2023-11-19T05:22:13;8.90;99.90
1702;DHT22;848;48.354;10.064;2023-11-19T05:24:40;8.90;99.90
1702;DHT22;848;48.354;10.064;2023-11-19T05:27:07;8.90;99.90
1702;DHT22;848;48.354;10.064;2023-11-19T05:29:34;8.90;99.90
1702;DHT22;848;48.354;10.064;2023-11-19T05:32:01;8.90;99.90
1702;DHT22;848;48.354;10.064;2023-11-19T05:34:28;8.90;99.90
1702;DHT22;848;48.354;10.064;2023-11-19T05:36:55;8.90;99.90
1702;DHT22;848;48.354;10.064;2023-11-19T05:39:24;8.90;99.90
1702;DHT22;848;48.354;10.064;2023-11-19T05:41:50;9.00;99.90
1702;DHT22;848;48.354;10.064;2023-11-19T05:44:17;9.10;99.90
1702;DHT22;848;48.354;10.064;2023-11-19T05:46:45;9.00;99.90
1702;DHT22;848;48.354;10.064;2023-11-19T05:49:12;9.00;99.90
1702;DHT22;848;48.354;10.064;2023-11-19T05:51:39;9.00;99.90
1702;DHT22;848;48.354;10.064;2023-11-19T05:54:06;9.00;99.90
1702;DHT22;848;48.354;10.064;2023-11-19T05:56:35;9.00;99.90
1702;DHT22;848;48.354;10.064;2023-11-19T05:59:02;9.00;99.90
1702;DHT22;848;48.354;10.064;2023-11-19T06:01:33;9.00;99.90
1702;DHT22;848;48.354;10.064;2023-11-19T06:04:00;9.10;99.90
1702;DHT22;848;48.354;10.064;2023-11-19T06:06:28;9.00;99.90
1702;DHT22;848;48.354;10.064;2023-11-19T06:08:55;9.10;99.90
1702;DHT22;848;48.354;10.064;2023-11-19T06:11:22;9.10;99.90
1702;DHT22;848;48.354;10.064;2023-11-19T06:13:50;9.10;99.90
1702;DHT22;848;48.354;10.064;2023-11-19T06:16:17;9.10;99.90
1702;DHT22;848;48.354;10.064;2023-11-19T06:18:44;9.10;99.90
1702;DHT22;848;48.354;10.064;2023-11-19T06:21:12;9.10;99.90
1702;DHT22;848;48.354;10.064;2023-11-19T06:23:41;9.10;99.90
1702;DHT22;848;48.354;10.064;2023-11-19T06:26:08;9.10;99.90
1702;DHT22;848;48.354;10.064;2023-11-19T06:28:35;9.10;99.90
1702;DHT22;848;48.354;10.064;2023-11-19T06:31:03;9.10;99.90
1702;DHT22;848;48.354;10.064;2023-11-19T06:33:30;9.10;99.90
1702;DHT22;848;48.354;10.064;2023-11-19T06:35:58;9.20;99.90
1702;DHT22;848;48.354;10.064;2023-11-19T06:38:25;9.20;99.90
1702;DHT22;848;48.354;10.064;2023-11-19T06:40:52;9.20;99.90
1702;DHT22;848;48.354;10.064;2023-11-19T06:43:19;9.30;99.90
1702;DHT22;848;48.354;10.064;2023-11-19T06:45:47;9.30;99.90
1702;DHT22;848;48.354;10.064;2023-11-19T06:48:15;9.30;99.90
1702;DHT22;848;48.354;10.064;2023-11-19T06:50:42;9.30;99.90
1702;DHT22;848;48.354;10.064;2023-11-19T06:53:09;9.40;99.90
1702;DHT22;848;48.354;10.064;2023-11-19T06:55:37;9.40;99.90
1702;DHT22;848;48.354;10.064;2023-11-19T06:58:05;9.40;99.90
1702;DHT22;848;48.354;10.064;2023-11-19T07:00:32;9.60;99.90
1702;DHT22;848;48.354;10.064;2023-11-19T07:03:01;9.50;99.90
1702;DHT22;848;48.354;10.064;2023-11-19T07:05:29;9.50;99.90
1702;DHT22;848;48.354;10.064;2023-11-19T07:07:56;9.50;99.90
1702;DHT22;848;48.354;10.064;2023-11-19T07:10:23;9.70;99.90
1702;DHT22;848;48.354;10.064;2023-11-19T07:12:50;9.60;99.90
1702;DHT22;848;48.354;10.064;2023-11-19T07:15:17;9.60;99.90
1702;DHT22;848;48.354;10.064;2023-11-19T07:17:44;9.60;99.90
1702;DHT22;848;48.354;10.064;2023-11-19T07:20:11;9.70;99.90
1702;DHT22;848;48.354;10.064;2023-11-19T07:22:43;9.70;99.90
1702;DHT22;848;48.354;10.064;2023-11-19T07:25:12;9.70;99.90
1702;DHT22;848;48.354;10.064;2023-11-19T07:27:39;9.70;99.90
1702;DHT22;848;48.354;10.064;2023-11-19T07:30:07;9.70;99.90
1702;DHT22;848;48.354;10.064;2023-11-19T07:32:33;9.70;99.90
1702;DHT22;848;48.354;10.064;2023-11-19T07:35:00;9.80;99.90
1702;DHT22;848;48.354;10.064;2023-11-19T07:37:28;9.80;99.90
1702;DHT22;848;48.354;10.064;2023-11-19T07:39:56;9.80;99.90
1702;DHT22;848;48.354;10.064;2023-11-19T07:42:23;9.90;99.90
1702;DHT22;848;48.354;10.064;2023-11-19T07:44:50;9.90;99.90
1702;DHT22;848;48.354;10.064;2023-11-19T07:47:17;9.90;99.90
1702;DHT22;848;48.354;10.064;2023-11-19T07:49:44;10.00;99.90
1702;DHT22;848;48.354;10.064;2023-11-19T07:52:10;10.00;99.90
1702;DHT22;848;48.354;10.064;2023-11-19T07:54:37;10.00;99.90
1702;DHT22;848;48.354;10.064;2023-11-19T07:57:05;10.00;99.90
1702;DHT22;848;48.354;10.064;2023-11-19T07:59:32;10.10;99.90
1702;DHT22;848;48.354;10.064;2023-11-19T08:01:59;10.10;99.90
1702;DHT22;848;48.354;10.064;2023-11-19T08:04:26;10.10;99.90
1702;DHT22;848;48.354;10.064;2023-11-19T08:06:53;10.10;99.90
1702;DHT22;848;48.354;10.064;2023-11-19T08:09:20;10.20;99.90
1702;DHT22;848;48.354;10.064;2023-11-19T08:11:47;10.20;99.90
1702;DHT22;848;48.354;10.064;2023-11-19T08:14:15;10.20;99.90
1702;DHT22;848;48.354;10.064;2023-11-19T08:16:42;10.30;99.90
1702;DHT22;848;48.354;10.064;2023-11-19T08:19:09;10.30;99.90
1702;DHT22;848;48.354;10.064;2023-11-19T08:21:35;10.30;99.90
1702;DHT22;848;48.354;10.064;2023-11-19T08:24:03;10.40;99.90
1702;DHT22;848;48.354;10.064;2023-11-19T08:26:30;10.40;99.90
1702;DHT22;848;48.354;10.064;2023-11-19T08:28:57;10.40;99.90
1702;DHT22;848;48.354;10.064;2023-11-19T08:31:26;10.40;99.90
1702;DHT22;848;48.354;10.064;2023-11-19T08:33:52;10.40;99.90
1702;DHT22;848;48.354;10.064;2023-11-19T08:36:19;10.40;99.90
1702;DHT22;848;48.354;10.064;2023-11-19T08:38:46;10.40;99.90
1702;DHT22;848;48.354;10.064;2023-11-19T08:41:14;10.50;99.90
1702;DHT22;848;48.354;10.064;2023-11-19T08:43:43;10.50;99.90
1702;DHT22;848;48.354;10.064;2023-11-19T08:46:10;10.50;99.90
1702;DHT22;848;48.354;10.064;2023-11-19T08:48:39;10.50;99.90
1702;DHT22;848;48.354;10.064;2023-11-19T08:51:06;10.60;99.90
1702;DHT22;848;48.354;10.064;2023-11-19T08:53:33;10.60;99.90
1702;DHT22;848;48.354;10.064;2023-11-19T08:56:00;10.70;99.90
1702;DHT22;848;48.354;10.064;2023-11-19T08:58:28;10.60;99.90
1702;DHT22;848;48.354;10.064;2023-11-19T09:00:56;10.70;99.90
1702;DHT22;848;48.354;10.064;2023-11-19T09:03:23;10.80;99.90
1702;DHT22;848;48.354;10.064;2023-11-19T09:05:53;10.80;99.90
1702;DHT22;848;48.354;10.064;2023-11-19T09:08:20;10.80;99.90
1702;DHT22;848;48.354;10.064;2023-11-19T09:10:47;10.80;99.90
1702;DHT22;848;48.354;10.064;2023-11-19T09:13:14;10.80;99.90
1702;DHT22;848;48.354;10.064;2023-11-19T09:15:41;10.90;99.90
1702;DHT22;848;48.354;10.064;2023-11-19T09:18:09;10.90;99.90
1702;DHT22;848;48.354;10.064;2023-11-19T09:20:36;10.90;99.90
1702;DHT22;848;48.354;10.064;2023-11-19T09:23:05;10.90;99.90
1702;DHT22;848;48.354;10.064;2023-11-19T09:25:34;11.00;99.90
1702;DHT22;848;48.354;10.064;2023-11-19T09:28:01;11.00;99.90
1702;DHT22;848;48.354;10.064;2023-11-19T09:30:28;11.10;99.90
1702;DHT22;848;48.354;10.064;2023-11-19T09:32:55;11.10;99.90
1702;DHT22;848;48.354;10.064;2023-11-19T09:35:22;11.20;99.90
1702;DHT22;848;48.354;10.064;2023-11-19T09:37:48;11.30;99.90
1702;DHT22;848;48.354;10.064;2023-11-19T09:40:17;11.20;99.90
1702;DHT22;848;48.354;10.064;2023-11-19T09:42:47;11.20;99.90
1702;DHT22;848;48.354;10.064;2023-11-19T09:45:15;11.20;99.90
1702;DHT22;848;48.354;10.064;2023-11-19T09:47:46;11.20;99.90
1702;DHT22;848;48.354;10.064;2023-11-19T09:50:16;11.20;99.90
1702;DHT22;848;48.354;10.064;2023-11-19T09:52:44;11.20;99.90
1702;DHT22;848;48.354;10.064;2023-11-19T09:55:12;11.30;99.90
1702;DHT22;848;48.354;10.064;2023-11-19T09:57:41;11.30;99.90
1702;DHT22;848;48.354;10.064;2023-11-19T10:00:10;11.40;99.90
1702;DHT22;848;48.354;10.064;2023-11-19T10:02:39;11.40;99.90
1702;DHT22;848;48.354;10.064;2023-11-19T10:05:07;11.50;99.90
1702;DHT22;848;48.354;10.064;2023-11-19T10:07:35;11.60;99.90
1702;DHT22;848;48.354;10.064;2023-11-19T10:10:04;11.60;99.90
1702;DHT22;848;48.354;10.064;2023-11-19T10:12:31;11.60;99.90
1702;DHT22;848;48.354;10.064;2023-11-19T10:14:59;11.70;99.90
1702;DHT22;848;48.354;10.064;2023-11-19T10:17:33;11.60;99.90
1702;DHT22;848;48.354;10.064;2023-11-19T10:20:00;11.70;99.90
1702;DHT22;848;48.354;10.064;2023-11-19T10:22:28;11.70;99.90
1702;DHT22;848;48.354;10.064;2023-11-19T10:24:55;11.80;99.90
1702;DHT22;848;48.354;10.064;2023-11-19T10:27:25;11.80;99.90
1702;DHT22;848;48.354;10.064;2023-11-19T10:29:53;11.80;99.90
1702;DHT22;848;48.354;10.064;2023-11-19T10:32:22;11.90;99.90
1702;DHT22;848;48.354;10.064;2023-11-19T10:34:49;12.00;99.90
1702;DHT22;848;48.354;10.064;2023-11-19T10:37:27;12.00;99.90
1702;DHT22;848;48.354;10.064;2023-11-19T10:39:55;12.00;99.90
1702;DHT22;848;48.354;10.064;2023-11-19T10:42:22;12.00;99.90
1702;DHT22;848;48.354;10.064;2023-11-19T10:44:50;12.00;99.90
1702;DHT22;848;48.354;10.064;2023-11-19T10:47:20;12.10;99.90
1702;DHT22;848;48.354;10.064;2023-11-19T10:49:49;12.10;99.90
1702;DHT22;848;48.354;10.064;2023-11-19T10:52:18;12.20;99.90
1702;DHT22;848;48.354;10.064;2023-11-19T10:54:50;12.30;99.90
1702;DHT22;848;48.354;10.064;2023-11-19T10:57:20;12.40;99.90
1702;DHT22;848;48.354;10.064;2023-11-19T10:59:47;12.50;99.90
1702;DHT22;848;48.354;10.064;2023-11-19T11:02:21;12.50;99.90
1702;DHT22;848;48.354;10.064;2023-11-19T11:04:51;12.50;99.90
1702;DHT22;848;48.354;10.064;2023-11-19T11:07:21;12.60;99.90
1702;DHT22;848;48.354;10.064;2023-11-19T11:09:51;12.70;99.90
1702;DHT22;848;48.354;10.064;2023-11-19T11:12:22;12.70;99.90
1702;DHT22;848;48.354;10.064;2023-11-19T11:14:49;12.70;99.90
1702;DHT22;848;48.354;10.064;2023-11-19T11:17:17;12.70;99.90
1702;DHT22;848;48.354;10.064;2023-11-19T11:19:46;12.70;99.90
1702;DHT22;848;48.354;10.064;2023-11-19T11:22:16;12.70;99.90
1702;DHT22;848;48.354;10.064;2023-11-19T11:25:02;12.70;99.90
1702;DHT22;848;48.354;10.064;2023-11-19T11:28:02;12.70;99.90
1702;DHT22;848;48.354;10.064;2023-11-19T11:30:43;12.70;99.90
1702;DHT22;848;48.354;10.064;2023-11-19T11:33:26;12.70;99.90
1702;DHT22;848;48.354;10.064;2023-11-19T11:36:09;12.80;99.90
1702;DHT22;848;48.354;10.064;2023-11-19T11:38:40;12.80;99.90
1702;DHT22;848;48.354;10.064;2023-11-19T11:41:18;12.90;99.90
1702;DHT22;848;48.354;10.064;2023-11-19T11:43:47;12.80;99.90
1702;DHT22;848;48.354;10.064;2023-11-19T11:49:28;12.90;99.90
1702;DHT22;848;48.354;10.064;2023-11-19T11:52:02;13.00;99.90
1702;DHT22;848;48.354;10.064;2023-11-19T11:54:30;13.10;99.90
1702;DHT22;848;48.354;10.064;2023-11-19T11:57:08;13.20;99.90
1702;DHT22;848;48.354;10.064;2023-11-19T11:59:48;13.10;99.90
1702;DHT22;848;48.354;10.064;2023-11-19T12:02:17;13.10;99.90
1702;DHT22;848;48.354;10.064;2023-11-19T12:04:47;13.10;99.90
1702;DHT22;848;48.354;10.064;2023-11-19T12:07:20;13.10;99.90
1702;DHT22;848;48.354;10.064;2023-11-19T12:09:48;13.10;99.90
1702;DHT22;848;48.354;10.064;2023-11-19T12:12:22;13.20;99.90
1702;DHT22;848;48.354;10.064;2023-11-19T12:15:06;13.20;99.90
1702;DHT22;848;48.354;10.064;2023-11-19T12:17:42;13.30;99.90
1702;DHT22;848;48.354;10.064;2023-11-19T12:20:11;13.30;99.90
1702;DHT22;848;48.354;10.064;2023-11-19T12:22:40;13.30;99.90
1702;DHT22;848;48.354;10.064;2023-11-19T12:25:08;13.30;99.90
1702;DHT22;848;48.354;10.064;2023-11-19T12:27:36;13.40;99.90
1702;DHT22;848;48.354;10.064;2023-11-19T12:30:03;13.40;99.90
1702;DHT22;848;48.354;10.064;2023-11-19T12:32:40;13.50;99.90
1702;DHT22;848;48.354;10.064;2023-11-19T12:35:08;13.50;99.90
1702;DHT22;848;48.354;10.064;2023-11-19T12:37:45;13.50;99.90
1702;DHT22;848;48.354;10.064;2023-11-19T12:40:16;13.50;99.90
1702;DHT22;848;48.354;10.064;2023-11-19T12:42:43;13.50;99.90
1702;DHT22;848;48.354;10.064;2023-11-19T12:45:10;13.50;99.90
1702;DHT22;848;48.354;10.064;2023-11-19T12:47:38;13.50;99.90
1702;DHT22;848;48.354;10.064;2023-11-19T12:50:06;13.50;99.90
1702;DHT22;848;48.354;10.064;2023-11-19T12:52:34;13.50;99.90
1702;DHT22;848;48.354;10.064;2023-11-19T12:55:02;13.50;99.90
1702;DHT22;848;48.354;10.064;2023-11-19T12:57:39;13.50;99.90
1702;DHT22;848;48.354;10.064;2023-11-19T13:00:07;13.60;99.90
1702;DHT22;848;48.354;10.064;2023-11-19T13:02:46;13.50;99.90
1702;DHT22;848;48.354;10.064;2023-11-19T13:05:29;13.60;99.90
1702;DHT22;848;48.354;10.064;2023-11-19T13:07:59;13.60;99.90
1702;DHT22;848;48.354;10.064;2023-11-19T13:10:28;13.70;99.90
1702;DHT22;848;48.354;10.064;2023-11-19T13:13:02;13.70;99.90
1702;DHT22;848;48.354;10.064;2023-11-19T13:15:30;13.60;99.90
1702;DHT22;848;48.354;10.064;2023-11-19T13:17:59;13.60;99.90
1702;DHT22;848;48.354;10.064;2023-11-19T13:20:26;13.60;99.90
1702;DHT22;848;48.354;10.064;2023-11-19T13:22:57;13.60;99.90
1702;DHT22;848;48.354;10.064;2023-11-19T13:25:25;13.50;99.90
1702;DHT22;848;48.354;10.064;2023-11-19T13:27:53;13.50;99.90
1702;DHT22;848;48.354;10.064;2023-11-19T13:30:20;13.40;99.90
1702;DHT22;848;48.354;10.064;2023-11-19T13:32:49;13.40;99.90
1702;DHT22;848;48.354;10.064;2023-11-19T13:35:16;13.50;99.90
1702;DHT22;848;48.354;10.064;2023-11-19T13:37:44;13.50;99.90
1702;DHT22;848;48.354;10.064;2023-11-19T13:40:11;13.50;99.90
1702;DHT22;848;48.354;10.064;2023-11-19T13:42:39;13.50;99.90
1702;DHT22;848;48.354;10.064;2023-11-19T13:45:09;13.50;99.90
1702;DHT22;848;48.354;10.064;2023-11-19T13:47:40;13.50;99.90
1702;DHT22;848;48.354;10.064;2023-11-19T13:50:08;13.50;99.90
1702;DHT22;848;48.354;10.064;2023-11-19T13:52:36;13.50;99.90
1702;DHT22;848;48.354;10.064;2023-11-19T13:55:06;13.50;99.90
1702;DHT22;848;48.354;10.064;2023-11-19T13:57:33;13.50;99.90
1702;DHT22;848;48.354;10.064;2023-11-19T14:00:01;13.50;99.90
1702;DHT22;848;48.354;10.064;2023-11-19T14:02:32;13.40;99.90
1702;DHT22;848;48.354;10.064;2023-11-19T14:04:59;13.50;99.90
1702;DHT22;848;48.354;10.064;2023-11-19T14:07:29;13.50;99.90
1702;DHT22;848;48.354;10.064;2023-11-19T14:09:55;13.50;99.90
1702;DHT22;848;48.354;10.064;2023-11-19T14:12:22;13.50;99.90
1702;DHT22;848;48.354;10.064;2023-11-19T14:14:49;13.40;99.90
1702;DHT22;848;48.354;10.064;2023-11-19T14:17:16;13.40;99.90
1702;DHT22;848;48.354;10.064;2023-11-19T14:19:45;13.40;99.90
1702;DHT22;848;48.354;10.064;2023-11-19T14:22:12;13.40;99.90
1702;DHT22;848;48.354;10.064;2023-11-19T14:24:39;13.40;99.90
1702;DHT22;848;48.354;10.064;2023-11-19T14:27:08;13.40;99.90
1702;DHT22;848;48.354;10.064;2023-11-19T14:29:35;13.30;99.90
1702;DHT22;848;48.354;10.064;2023-11-19T14:32:02;13.30;99.90
1702;DHT22;848;48.354;10.064;2023-11-19T14:34:29;13.20;99.90
1702;DHT22;848;48.354;10.064;2023-11-19T14:36:57;13.30;99.90
1702;DHT22;848;48.354;10.064;2023-11-19T14:39:26;13.30;99.90
1702;DHT22;848;48.354;10.064;2023-11-19T14:41:52;13.30;99.90
1702;DHT22;848;48.354;10.064;2023-11-19T14:44:23;13.30;99.90
1702;DHT22;848;48.354;10.064;2023-11-19T14:46:50;13.20;99.90
1702;DHT22;848;48.354;10.064;2023-11-19T14:49:17;13.10;99.90
1702;DHT22;848;48.354;10.064;2023-11-19T14:51:46;13.00;99.90
1702;DHT22;848;48.354;10.064;2023-11-19T14:54:14;13.00;99.90
1702;DHT22;848;48.354;10.064;2023-11-19T14:56:42;13.00;99.90
1702;DHT22;848;48.354;10.064;2023-11-19T14:59:10;12.90;99.90
1702;DHT22;848;48.354;10.064;2023-11-19T15:01:36;12.90;99.90
1702;DHT22;848;48.354;10.064;2023-11-19T15:04:04;12.90;99.90
1702;DHT22;848;48.354;10.064;2023-11-19T15:06:31;12.90;99.90
1702;DHT22;848;48.354;10.064;2023-11-19T15:08:59;12.80;99.90
1702;DHT22;848;48.354;10.064;2023-11-19T15:11:27;12.80;99.90
1702;DHT22;848;48.354;10.064;2023-11-19T15:13:54;12.80;99.90
1702;DHT22;848;48.354;10.064;2023-11-19T15:16:21;12.70;99.90
1702;DHT22;848;48.354;10.064;2023-11-19T15:18:56;12.70;99.90
1702;DHT22;848;48.354;10.064;2023-11-19T15:21:25;12.70;99.90
1702;DHT22;848;48.354;10.064;2023-11-19T15:23:52;12.70;99.90
1702;DHT22;848;48.354;10.064;2023-11-19T15:26:22;12.70;99.90
1702;DHT22;848;48.354;10.064;2023-11-19T15:28:50;12.60;99.90
1702;DHT22;848;48.354;10.064;2023-11-19T15:31:21;12.70;99.90
1702;DHT22;848;48.354;10.064;2023-11-19T15:33:48;12.60;99.90
1702;DHT22;848;48.354;10.064;2023-11-19T15:36:16;12.70;99.90
1702;DHT22;848;48.354;10.064;2023-11-19T15:38:43;12.60;99.90
1702;DHT22;848;48.354;10.064;2023-11-19T15:41:12;12.50;99.90
1702;DHT22;848;48.354;10.064;2023-11-19T15:43:39;12.50;99.90
1702;DHT22;848;48.354;10.064;2023-11-19T15:46:08;12.60;99.90
1702;DHT22;848;48.354;10.064;2023-11-19T15:48:36;12.60;99.90
1702;DHT22;848;48.354;10.064;2023-11-19T15:51:04;12.50;99.90
1702;DHT22;848;48.354;10.064;2023-11-19T15:53:31;12.50;99.90
1702;DHT22;848;48.354;10.064;2023-11-19T15:55:58;12.40;99.90
1702;DHT22;848;48.354;10.064;2023-11-19T15:58:25;12.40;99.90
1702;DHT22;848;48.354;10.064;2023-11-19T16:00:51;12.40;99.90
1702;DHT22;848;48.354;10.064;2023-11-19T16:03:20;12.50;99.90
1702;DHT22;848;48.354;10.064;2023-11-19T16:05:47;12.30;99.90
1702;DHT22;848;48.354;10.064;2023-11-19T16:08:14;12.30;99.90
1702;DHT22;848;48.354;10.064;2023-11-19T16:10:41;12.20;99.90
1702;DHT22;848;48.354;10.064;2023-11-19T16:13:09;12.30;99.90
1702;DHT22;848;48.354;10.064;2023-11-19T16:15:36;12.30;99.90
1702;DHT22;848;48.354;10.064;2023-11-19T16:18:03;12.20;99.90
1702;DHT22;848;48.354;10.064;2023-11-19T16:20:31;12.20;99.90